首页
METAR-TAF:

METAR-TAF

机场 :

開曼布拉克, 開曼群島

纬度: 19-41-13N, 经度: 079-52-58W, 海拔: 2米

当前天气观测

该预报发布于1小时和36分钟前的00:00 UTC
风速2节,风向多变
温度 29°C
湿度 70%
气压 1014 hPa
能见度10公里或以上
少量云层高于2000英尺

METAR: MWCB 230000Z VRB02KT 9999 FEW020 29/23 Q1014

时间: 20:36 (01:36 UTC)

预报

该预报发布于8小时和36分钟前的17:00 UTC
预报有效从22日的 18点(UTC)到 23日的 18点(UTC)
风速12节,风向
能见度10公里或以上
少量云层高于1800英尺

TAF: MWCB 221700Z 2218/2318 08012KT 9999 FEW018

超过4000个机场的气象观测和天气预报(METAR&TAF报告)。

可查询的气象台以黄色和红色小点在地图上表示。

将鼠标移到小点上方,可查看气象台名称。

然后点击查看天气观测和预报。

如需切换地图:点击带黑十字的绿色按钮放大地图;点击带横线的绿色按钮缩小地图;或者点击绿色箭头查看邻近地区的地图。


METAR-TAF: